Time;durP1;ratioP1;P1;durP2;ratioP2;P2;SDS_P1;SDS_P2;PMS_P1;PMS_P2;Temp;Humidity;BMP_temperature;BMP_pressure;BME280_temperature;BME280_humidity;BME280_pressure;Samples;Min_cycle;Max_cycle;Signal;HPM_P1;HPM_P2
2021/05/05 00:00:04;;;;;;;2.75;2.10;;;8.90;1.00;;;;;;5092169;28;20231;-77
2021/05/05 00:02:33;;;;;;;4.30;1.52;;;8.90;1.00;;;;;;5077505;28;20332;-79
2021/05/05 00:05:00;;;;;;;1.40;1.30;;;8.90;1.00;;;;;;5090822;28;21129;-78
2021/05/05 00:07:27;;;;;;;3.53;1.70;;;9.00;1.00;;;;;;5088265;28;20213;-80
2021/05/05 00:09:56;;;;;;;2.75;1.50;;;8.90;1.00;;;;;;5071401;28;20224;-78
2021/05/05 00:12:22;;;;;;;2.25;1.80;;;8.90;1.00;;;;;;5087791;28;20226;-80
2021/05/05 00:14:49;;;;;;;6.05;1.85;;;8.90;1.00;;;;;;5063861;28;20319;-79
2021/05/05 00:17:16;;;;;;;2.67;1.77;;;8.80;1.00;;;;;;5087124;28;20229;-78
2021/05/05 00:19:43;;;;;;;2.50;1.33;;;8.90;1.00;;;;;;5068537;27;20232;-80
2021/05/05 00:22:09;;;;;;;3.20;2.13;;;8.90;1.00;;;;;;5085761;28;20216;-80
2021/05/05 00:24:35;;;;;;;3.00;2.03;;;8.90;1.00;;;;;;5073202;28;20256;-79
2021/05/05 00:27:01;;;;;;;3.38;1.48;;;9.00;1.00;;;;;;5066057;28;20676;-80
2021/05/05 00:29:28;;;;;;;1.55;1.30;;;8.90;1.00;;;;;;5075700;28;20394;-79
2021/05/05 00:31:55;;;;;;;2.30;1.83;;;8.90;1.00;;;;;;5072510;28;20228;-80
2021/05/05 00:34:21;;;;;;;4.28;1.90;;;8.80;1.00;;;;;;5088875;28;20311;-79
2021/05/05 00:36:47;;;;;;;3.38;2.20;;;8.80;1.00;;;;;;5076726;28;20263;-79
2021/05/05 00:39:14;;;;;;;4.38;2.28;;;8.70;1.00;;;;;;5089232;28;20232;-79
2021/05/05 00:41:40;;;;;;;2.67;1.70;;;8.70;1.00;;;;;;5081366;28;20216;-79
2021/05/05 00:44:07;;;;;;;2.25;1.73;;;8.60;1.00;;;;;;5077823;28;20243;-78
2021/05/05 00:46:33;;;;;;;4.28;1.95;;;8.50;1.00;;;;;;5085029;28;20213;-79
2021/05/05 00:49:00;;;;;;;2.95;1.83;;;8.50;1.00;;;;;;5083765;28;20232;-79
2021/05/05 00:51:26;;;;;;;4.30;1.90;;;8.50;1.00;;;;;;5075243;28;20233;-79
2021/05/05 00:53:53;;;;;;;3.70;1.85;;;8.50;1.00;;;;;;5075979;28;20221;-80
2021/05/05 00:56:19;;;;;;;3.78;1.90;;;8.40;1.00;;;;;;5076435;28;20229;-79
2021/05/05 00:58:46;;;;;;;3.60;1.77;;;8.40;1.00;;;;;;5081402;28;20229;-80
2021/05/05 01:01:12;;;;;;;3.65;1.80;;;8.50;1.00;;;;;;5075233;27;20255;-80
2021/05/05 01:03:38;;;;;;;1.95;1.70;;;8.40;1.00;;;;;;5079828;28;20224;-79
2021/05/05 01:06:06;;;;;;;3.88;1.65;;;8.40;1.00;;;;;;5079773;28;20267;-81
2021/05/05 01:08:32;;;;;;;2.30;1.98;;;8.40;1.00;;;;;;5083814;28;20351;-80
2021/05/05 01:11:00;;;;;;;5.70;2.10;;;8.40;1.00;;;;;;5093691;28;20266;-80
2021/05/05 01:13:27;;;;;;;5.53;2.30;;;8.40;1.00;;;;;;5097466;28;20243;-80
2021/05/05 01:15:54;;;;;;;4.75;2.20;;;8.40;1.00;;;;;;5098752;28;20234;-80
2021/05/05 01:18:21;;;;;;;2.88;1.85;;;8.40;1.00;;;;;;5098109;28;20216;-80
2021/05/05 01:20:47;;;;;;;4.28;2.20;;;8.40;1.00;;;;;;5092413;28;20220;-80
2021/05/05 01:23:14;;;;;;;2.17;1.75;;;8.40;1.00;;;;;;5096050;28;20229;-78
2021/05/05 01:25:41;;;;;;;5.80;2.22;;;8.50;1.00;;;;;;5096331;28;20794;-79
2021/05/05 01:28:07;;;;;;;3.13;2.10;;;8.50;1.00;;;;;;5106427;28;20225;-80
2021/05/05 01:30:34;;;;;;;6.13;2.25;;;8.50;1.00;;;;;;5078715;28;20438;-79
2021/05/05 01:33:00;;;;;;;3.08;1.92;;;8.50;1.00;;;;;;5082183;28;20216;-79
2021/05/05 01:35:26;;;;;;;2.90;2.15;;;8.40;1.00;;;;;;5083855;28;20248;-81
2021/05/05 01:37:53;;;;;;;3.38;2.10;;;8.30;1.00;;;;;;5073781;28;20224;-81
2021/05/05 01:40:28;;;;;;;2.60;2.38;;;8.30;1.00;;;;;;5084812;28;20229;-80
2021/05/05 01:42:55;;;;;;;2.17;1.90;;;8.20;1.00;;;;;;5088149;28;20781;-79
2021/05/05 01:45:21;;;;;;;4.97;2.45;;;8.20;1.00;;;;;;5082672;28;20224;-80
2021/05/05 01:47:48;;;;;;;2.38;1.73;;;8.10;1.00;;;;;;5081055;28;20342;-81
2021/05/05 01:50:14;;;;;;;2.55;2.10;;;8.00;1.00;;;;;;5086270;28;20521;-79
2021/05/05 01:52:40;;;;;;;5.07;3.05;;;8.00;1.00;;;;;;5089678;28;21680;-78
2021/05/05 01:55:09;;;;;;;4.03;2.10;;;8.00;1.00;;;;;;5085765;28;20268;-81
2021/05/05 01:57:39;;;;;;;2.45;2.25;;;7.90;1.00;;;;;;5062843;28;20228;-79
2021/05/05 02:00:12;;;;;;;3.22;1.90;;;7.90;1.00;;;;;;5070529;28;20228;-81
2021/05/05 02:02:39;;;;;;;2.88;2.40;;;8.00;1.00;;;;;;5075748;22;20632;-79
2021/05/05 02:05:07;;;;;;;2.08;1.95;;;8.00;1.00;;;;;;5097465;27;20219;-79
2021/05/05 02:07:35;;;;;;;4.43;2.55;;;8.10;1.00;;;;;;5094863;27;20255;-79
2021/05/05 02:10:03;;;;;;;4.07;1.85;;;8.10;1.00;;;;;;5096357;27;20207;-80
2021/05/05 02:12:30;;;;;;;2.13;1.90;;;8.20;1.00;;;;;;5095634;27;20223;-79
2021/05/05 02:14:57;;;;;;;3.90;1.90;;;8.30;1.00;;;;;;5104856;27;20306;-81
2021/05/05 02:17:23;;;;;;;5.05;2.00;;;8.30;1.00;;;;;;5102039;27;21042;-80
2021/05/05 02:19:50;;;;;;;7.38;2.03;;;8.30;1.00;;;;;;5117551;27;20227;-80
2021/05/05 02:22:16;;;;;;;4.07;1.83;;;8.40;1.00;;;;;;5114245;27;20298;-79
2021/05/05 02:24:42;;;;;;;4.78;2.33;;;8.40;1.00;;;;;;5097901;27;20227;-81
2021/05/05 02:27:09;;;;;;;4.65;2.35;;;8.40;1.00;;;;;;5095574;27;20219;-79
2021/05/05 02:29:35;;;;;;;6.18;2.50;;;8.30;1.00;;;;;;5091874;27;20239;-79
2021/05/05 02:32:07;;;;;;;4.60;2.20;;;8.30;1.00;;;;;;5092770;27;20307;-80
2021/05/05 02:34:33;;;;;;;3.17;2.13;;;8.20;1.00;;;;;;5089144;27;20211;-79
2021/05/05 02:36:59;;;;;;;2.65;1.90;;;8.20;1.00;;;;;;5093070;27;20318;-80
2021/05/05 02:39:25;;;;;;;4.68;2.90;;;8.20;1.00;;;;;;5091317;27;20740;-79
2021/05/05 02:41:52;;;;;;;5.72;2.60;;;8.20;1.00;;;;;;5073786;28;20770;-81
2021/05/05 02:44:18;;;;;;;3.38;2.55;;;8.20;1.00;;;;;;5090972;28;20230;-81
2021/05/05 02:46:44;;;;;;;4.93;3.00;;;8.20;1.00;;;;;;5092047;27;20211;-80
2021/05/05 02:49:11;;;;;;;4.28;2.20;;;8.20;1.00;;;;;;5096403;27;20255;-80
2021/05/05 02:51:38;;;;;;;4.18;3.28;;;8.20;1.00;;;;;;5093032;27;20228;-80
2021/05/05 02:54:04;;;;;;;4.32;2.85;;;8.20;1.00;;;;;;5094580;28;20322;-79
2021/05/05 02:56:31;;;;;;;2.40;2.20;;;8.10;1.00;;;;;;5096336;27;20219;-81
2021/05/05 02:58:57;;;;;;;2.78;2.33;;;8.10;1.00;;;;;;5096734;27;20273;-80
2021/05/05 03:01:23;;;;;;;4.28;3.00;;;8.00;1.00;;;;;;5094105;27;20216;-80
2021/05/05 03:03:49;;;;;;;5.30;2.80;;;8.00;1.00;;;;;;5104004;27;20291;-81
2021/05/05 03:06:16;;;;;;;7.38;3.13;;;8.00;1.00;;;;;;5092468;27;20809;-80
2021/05/05 03:08:43;;;;;;;4.45;2.58;;;8.00;1.00;;;;;;5094206;27;20234;-80
2021/05/05 03:11:09;;;;;;;3.72;2.75;;;8.00;1.00;;;;;;5071489;28;20227;-80
2021/05/05 03:13:35;;;;;;;4.07;2.47;;;8.00;1.00;;;;;;5098085;28;20234;-80
2021/05/05 03:16:01;;;;;;;6.00;3.08;;;7.90;1.00;;;;;;5090403;27;20353;-80
2021/05/05 03:18:27;;;;;;;4.78;3.00;;;7.90;1.00;;;;;;5098220;27;20216;-80
2021/05/05 03:20:55;;;;;;;5.95;4.07;;;7.90;1.00;;;;;;5087558;27;20251;-80
2021/05/05 03:23:22;;;;;;;5.55;3.25;;;7.90;1.00;;;;;;5092023;27;20243;-81
2021/05/05 03:25:48;;;;;;;3.03;2.80;;;7.90;1.00;;;;;;5091741;27;20263;-80
2021/05/05 03:28:14;;;;;;;3.45;2.80;;;7.90;1.00;;;;;;5097246;27;20232;-80
2021/05/05 03:30:40;;;;;;;4.32;2.65;;;7.90;1.00;;;;;;5091092;27;21211;-80
2021/05/05 03:33:06;;;;;;;3.85;2.25;;;7.90;1.00;;;;;;5094062;27;20223;-79
2021/05/05 03:35:33;;;;;;;4.40;2.60;;;7.90;1.00;;;;;;5096281;27;20306;-79
2021/05/05 03:37:59;;;;;;;5.32;2.38;;;7.90;1.00;;;;;;5090670;27;21323;-80
2021/05/05 03:40:28;;;;;;;4.78;2.60;;;7.90;1.00;;;;;;5094705;27;20265;-80
2021/05/05 03:42:54;;;;;;;3.53;2.80;;;7.90;1.00;;;;;;5092577;28;20224;-80
2021/05/05 03:45:20;;;;;;;7.90;5.10;;;8.00;1.00;;;;;;5088945;28;20227;-79
2021/05/05 03:47:47;;;;;;;4.80;3.58;;;8.00;1.00;;;;;;5090753;28;20262;-80
2021/05/05 03:50:13;;;;;;;4.45;3.35;;;8.00;1.00;;;;;;5091667;27;20255;-80
2021/05/05 03:52:39;;;;;;;6.25;2.47;;;8.00;1.00;;;;;;5090752;27;20319;-80
2021/05/05 03:55:07;;;;;;;4.80;2.60;;;8.10;1.00;;;;;;5092993;27;21126;-79
2021/05/05 03:57:34;;;;;;;2.60;2.40;;;8.10;1.00;;;;;;5094593;27;20255;-80
2021/05/05 04:00:00;;;;;;;2.70;2.28;;;8.20;1.00;;;;;;5095658;27;20231;-80
2021/05/05 04:02:27;;;;;;;2.33;2.10;;;8.20;1.00;;;;;;5093592;27;20219;-81
2021/05/05 04:04:53;;;;;;;2.60;2.40;;;8.20;1.00;;;;;;5096807;27;20231;-81
2021/05/05 04:07:19;;;;;;;4.15;2.67;;;8.30;1.00;;;;;;5096176;27;20741;-79
2021/05/05 04:09:46;;;;;;;3.17;2.22;;;8.20;1.00;;;;;;5095547;27;20235;-80
2021/05/05 04:12:12;;;;;;;2.58;2.33;;;8.30;1.00;;;;;;5095932;27;20320;-79
2021/05/05 04:14:39;;;;;;;4.22;2.55;;;8.30;1.00;;;;;;5100459;27;20231;-80
2021/05/05 04:17:06;;;;;;;5.63;2.53;;;8.30;1.00;;;;;;5095466;27;20304;-80
2021/05/05 04:19:33;;;;;;;12.02;2.88;;;8.40;1.00;;;;;;5096387;27;21126;-83
2021/05/05 04:22:00;;;;;;;5.35;2.65;;;8.40;1.00;;;;;;5093923;27;20322;-80
2021/05/05 04:24:26;;;;;;;4.25;2.25;;;8.50;1.00;;;;;;5077945;28;20235;-84
2021/05/05 04:26:53;;;;;;;4.47;2.40;;;8.50;1.00;;;;;;5105518;27;20480;-82
2021/05/05 04:29:20;;;;;;;4.40;2.40;;;8.60;1.00;;;;;;5104200;27;20263;-83
2021/05/05 04:31:48;;;;;;;4.47;2.88;;;8.60;1.00;;;;;;5116413;27;20223;-83
2021/05/05 04:34:15;;;;;;;4.32;2.17;;;8.60;1.00;;;;;;5114565;27;20204;-84
2021/05/05 04:36:41;;;;;;;3.95;2.80;;;8.60;1.00;;;;;;5098933;27;20855;-84
2021/05/05 04:39:07;;;;;;;2.15;1.80;;;8.70;1.00;;;;;;5101948;27;20242;-84
2021/05/05 04:41:34;;;;;;;4.32;2.60;;;8.70;1.00;;;;;;5087766;28;21039;-84
2021/05/05 04:44:01;;;;;;;3.55;2.58;;;8.70;1.00;;;;;;5104662;27;20245;-85
2021/05/05 04:46:28;;;;;;;3.85;2.85;;;8.70;1.00;;;;;;5091369;28;20274;-85
2021/05/05 04:48:55;;;;;;;3.42;2.35;;;8.70;1.00;;;;;;5114086;27;20286;-83
2021/05/05 04:51:22;;;;;;;2.95;2.10;;;8.80;1.00;;;;;;5109669;27;20268;-84
2021/05/05 04:53:48;;;;;;;5.35;2.80;;;8.80;1.00;;;;;;5098533;27;20232;-79
2021/05/05 04:56:15;;;;;;;4.13;2.30;;;8.90;1.00;;;;;;5106955;27;20252;-78
2021/05/05 04:58:41;;;;;;;3.53;2.17;;;9.00;1.00;;;;;;5101010;28;20220;-80
2021/05/05 05:01:07;;;;;;;7.43;2.20;;;9.00;1.00;;;;;;5098132;27;20301;-79
2021/05/05 05:03:33;;;;;;;3.38;1.92;;;9.10;1.00;;;;;;5087448;27;20280;-79
2021/05/05 05:06:00;;;;;;;3.45;3.05;;;9.10;1.00;;;;;;5090598;27;20224;-79
2021/05/05 05:08:27;;;;;;;2.92;2.10;;;9.20;1.00;;;;;;5090699;27;20243;-80
2021/05/05 05:10:53;;;;;;;2.53;1.90;;;9.20;1.00;;;;;;5088575;27;20415;-79
2021/05/05 05:13:19;;;;;;;3.33;1.88;;;9.10;1.00;;;;;;5090706;27;20270;-79
2021/05/05 05:15:46;;;;;;;2.95;2.35;;;9.20;1.00;;;;;;5086560;27;20216;-79
2021/05/05 05:18:13;;;;;;;2.70;1.80;;;9.20;1.00;;;;;;5091163;27;20217;-81
2021/05/05 05:20:40;;;;;;;3.80;2.20;;;9.30;1.00;;;;;;5093360;27;22998;-79
2021/05/05 05:23:07;;;;;;;3.10;2.20;;;9.30;1.00;;;;;;5077968;28;20239;-79
2021/05/05 05:25:34;;;;;;;3.25;2.25;;;9.30;1.00;;;;;;5095963;27;20277;-80
2021/05/05 05:28:00;;;;;;;5.60;2.67;;;9.30;1.00;;;;;;5095096;27;20220;-79
2021/05/05 05:30:26;;;;;;;4.22;2.33;;;9.30;1.00;;;;;;5092113;27;20265;-80
2021/05/05 05:32:53;;;;;;;2.75;2.50;;;9.30;1.00;;;;;;5092173;27;20216;-80
2021/05/05 05:35:19;;;;;;;3.45;2.35;;;9.40;1.00;;;;;;5089527;27;20220;-80
2021/05/05 05:37:45;;;;;;;3.08;2.13;;;9.40;1.00;;;;;;5099556;27;20272;-81
2021/05/05 05:40:14;;;;;;;2.97;2.10;;;9.40;1.00;;;;;;5080594;28;20224;-81
2021/05/05 05:42:41;;;;;;;4.25;2.20;;;9.50;1.00;;;;;;5094946;27;20936;-82
2021/05/05 05:45:08;;;;;;;4.55;2.70;;;9.50;1.00;;;;;;5094789;27;20242;-81
2021/05/05 05:47:34;;;;;;;6.55;2.88;;;9.50;1.00;;;;;;5092253;27;20282;-82
2021/05/05 05:50:00;;;;;;;4.70;2.40;;;9.60;1.00;;;;;;5092069;27;20361;-82
2021/05/05 05:52:27;;;;;;;6.05;2.35;;;9.60;1.00;;;;;;5091702;27;20224;-81
2021/05/05 05:54:53;;;;;;;3.88;2.10;;;9.40;1.00;;;;;;5096313;27;20212;-83
2021/05/05 05:57:20;;;;;;;5.28;2.72;;;9.30;1.00;;;;;;5087103;27;20266;-82
2021/05/05 05:59:46;;;;;;;6.05;2.55;;;9.30;1.00;;;;;;5097604;27;20242;-79
2021/05/05 06:02:12;;;;;;;3.85;2.38;;;9.30;1.00;;;;;;5095770;27;20312;-80
2021/05/05 06:04:38;;;;;;;4.63;2.75;;;9.30;1.00;;;;;;5091162;27;20262;-80
2021/05/05 06:07:05;;;;;;;2.85;2.60;;;9.30;1.00;;;;;;5094582;28;20226;-80
2021/05/05 06:09:31;;;;;;;2.72;2.40;;;9.40;1.00;;;;;;5092007;28;20323;-81
2021/05/05 06:11:57;;;;;;;6.95;2.70;;;9.40;1.00;;;;;;5090415;27;20288;-81
2021/05/05 06:14:24;;;;;;;3.83;2.80;;;9.50;1.00;;;;;;5095756;27;20250;-81
2021/05/05 06:16:51;;;;;;;6.47;5.80;;;9.60;1.00;;;;;;5097324;27;20226;-81
2021/05/05 06:19:17;;;;;;;4.28;3.25;;;9.70;1.00;;;;;;5096601;27;20272;-81
2021/05/05 06:21:44;;;;;;;3.67;2.25;;;9.90;1.00;;;;;;5095774;27;20227;-80
2021/05/05 06:24:11;;;;;;;4.10;2.78;;;10.00;1.00;;;;;;5069554;28;20269;-83
2021/05/05 06:26:37;;;;;;;4.13;3.03;;;10.00;1.00;;;;;;5099289;27;20230;-81
2021/05/05 06:29:03;;;;;;;3.25;2.50;;;9.80;1.00;;;;;;5107165;27;20231;-82
2021/05/05 06:31:31;;;;;;;2.50;2.30;;;9.70;1.00;;;;;;5094254;27;20202;-83
2021/05/05 06:33:58;;;;;;;3.42;2.95;;;9.80;1.00;;;;;;5089865;27;20266;-83
2021/05/05 06:36:24;;;;;;;2.83;2.63;;;9.70;1.00;;;;;;5102378;27;20228;-83
2021/05/05 06:38:50;;;;;;;3.13;2.53;;;9.70;1.00;;;;;;5093893;27;20220;-82
2021/05/05 06:41:17;;;;;;;6.95;2.97;;;9.70;1.00;;;;;;5100390;27;20221;-84
2021/05/05 06:43:43;;;;;;;4.38;2.38;;;9.90;1.00;;;;;;5103776;27;21079;-81
2021/05/05 06:46:09;;;;;;;4.18;2.15;;;10.10;1.00;;;;;;5116770;27;20229;-83
2021/05/05 06:48:36;;;;;;;4.70;2.50;;;10.30;1.00;;;;;;5102256;27;20253;-82
2021/05/05 06:51:03;;;;;;;3.08;2.45;;;10.50;1.00;;;;;;5100523;28;20245;-83
2021/05/05 06:53:29;;;;;;;2.60;2.40;;;10.50;1.00;;;;;;5098300;27;20232;-83
2021/05/05 06:55:56;;;;;;;2.78;2.10;;;10.50;1.00;;;;;;5106620;27;20231;-84
2021/05/05 06:58:22;;;;;;;8.10;5.50;;;10.70;1.00;;;;;;5086817;28;23406;-84
2021/05/05 07:00:48;;;;;;;3.20;2.90;;;10.90;1.00;;;;;;5085473;28;21197;-84
2021/05/05 07:03:15;;;;;;;5.53;2.58;;;11.10;1.00;;;;;;5109535;27;21032;-83
2021/05/05 07:05:42;;;;;;;5.00;2.60;;;11.30;1.00;;;;;;5100367;28;20227;-82
2021/05/05 07:08:08;;;;;;;4.00;3.00;;;11.20;1.00;;;;;;5111991;28;20310;-83
2021/05/05 07:10:34;;;;;;;4.68;3.60;;;11.00;1.00;;;;;;5118373;27;20266;-83
2021/05/05 07:13:01;;;;;;;3.33;2.80;;;10.80;1.00;;;;;;5117735;27;20235;-83
2021/05/05 07:15:28;;;;;;;3.17;2.88;;;10.60;1.00;;;;;;5115808;28;20271;-82
2021/05/05 07:17:55;;;;;;;3.25;2.83;;;10.50;1.00;;;;;;5123610;27;20322;-83
2021/05/05 07:20:21;;;;;;;4.80;3.50;;;10.40;1.00;;;;;;5117650;27;20296;-83
2021/05/05 07:22:49;;;;;;;3.85;3.00;;;10.30;1.00;;;;;;5118873;27;20233;-82
2021/05/05 07:25:15;;;;;;;3.33;2.63;;;10.20;1.00;;;;;;5118637;27;20251;-83
2021/05/05 07:27:42;;;;;;;3.30;2.95;;;10.20;1.00;;;;;;5125746;27;20228;-81
2021/05/05 07:30:10;;;;;;;4.35;2.90;;;10.30;1.00;;;;;;5122758;27;20230;-83
2021/05/05 07:32:36;;;;;;;4.32;3.60;;;10.30;1.00;;;;;;5126066;27;20226;-82
2021/05/05 07:35:07;;;;;;;3.20;2.72;;;10.30;1.00;;;;;;5115519;27;20356;-81
2021/05/05 07:37:48;;;;;;;3.88;3.50;;;10.40;1.00;;;;;;5119778;27;20343;-83
2021/05/05 07:45:56;;;;;;;4.10;3.17;;;11.10;1.00;;;;;;5099990;27;20225;-84
2021/05/05 07:48:27;;;;;;;3.28;2.78;;;11.10;1.00;;;;;;5094685;27;20312;-83
2021/05/05 07:50:54;;;;;;;2.85;2.65;;;11.30;1.00;;;;;;5098645;27;20222;-82
2021/05/05 07:53:20;;;;;;;3.22;2.95;;;11.20;1.00;;;;;;5098532;27;20232;-83
2021/05/05 07:55:47;;;;;;;3.47;3.15;;;11.10;1.00;;;;;;5093534;27;20224;-84
2021/05/05 07:58:14;;;;;;;4.38;2.50;;;11.10;1.00;;;;;;5106152;27;20279;-83
2021/05/05 08:00:40;;;;;;;3.83;2.83;;;11.30;1.00;;;;;;5099331;27;20298;-83
2021/05/05 08:03:06;;;;;;;2.78;2.58;;;11.30;1.00;;;;;;5101462;27;20439;-82
2021/05/05 08:05:33;;;;;;;2.95;2.75;;;11.30;1.00;;;;;;5107644;28;23469;-82
2021/05/05 08:08:00;;;;;;;2.63;2.40;;;11.30;1.00;;;;;;5101111;27;20258;-84
2021/05/05 08:10:26;;;;;;;3.47;3.10;;;11.30;1.00;;;;;;5084269;28;20241;-83
2021/05/05 08:12:54;;;;;;;5.25;2.63;;;11.30;1.00;;;;;;5102342;27;21579;-82
2021/05/05 08:15:21;;;;;;;2.78;2.50;;;11.30;1.00;;;;;;5111881;27;20250;-83
2021/05/05 08:17:47;;;;;;;3.53;3.05;;;11.40;1.00;;;;;;5103646;27;21885;-84
2021/05/05 08:20:14;;;;;;;2.80;2.60;;;11.40;1.00;;;;;;5105480;28;20247;-84
2021/05/05 08:22:41;;;;;;;3.13;2.30;;;11.50;1.00;;;;;;5103300;27;20225;-82
2021/05/05 08:25:08;;;;;;;2.30;2.10;;;11.70;1.00;;;;;;5109679;27;21059;-84
2021/05/05 08:27:34;;;;;;;3.57;2.63;;;11.90;1.00;;;;;;5107359;27;20238;-84
2021/05/05 08:30:01;;;;;;;4.07;2.30;;;12.10;1.00;;;;;;5102608;27;20433;-85
2021/05/05 08:32:28;;;;;;;2.65;2.35;;;12.00;1.00;;;;;;5107507;27;20414;-82
2021/05/05 08:34:54;;;;;;;2.83;2.27;;;12.00;1.00;;;;;;5089660;28;20731;-84
2021/05/05 08:37:20;;;;;;;5.13;2.90;;;12.20;1.00;;;;;;5085702;28;20562;-84
2021/05/05 08:39:47;;;;;;;7.25;6.63;;;12.20;1.00;;;;;;5105710;27;20525;-83
2021/05/05 08:42:15;;;;;;;3.05;2.45;;;12.10;1.00;;;;;;5101455;27;20235;-84
2021/05/05 08:44:45;;;;;;;3.10;2.53;;;11.80;1.00;;;;;;5108549;27;20250;-83
2021/05/05 08:47:12;;;;;;;5.10;4.60;;;12.00;1.00;;;;;;5104314;27;20495;-83
2021/05/05 08:49:39;;;;;;;2.90;2.67;;;12.40;1.00;;;;;;5107069;27;20549;-84
2021/05/05 08:52:05;;;;;;;5.27;2.90;;;12.60;1.00;;;;;;5117366;27;20472;-83
2021/05/05 08:54:32;;;;;;;3.30;3.00;;;12.90;1.00;;;;;;5111635;28;21415;-83
2021/05/05 08:59:41;;;;;;;3.17;2.87;;;12.70;1.00;;;;;;5114390;27;21199;-90
2021/05/05 09:02:10;;;;;;;3.30;3.00;;;12.10;1.00;;;;;;5113855;28;20493;-89
2021/05/05 09:04:38;;;;;;;3.00;2.58;;;11.10;1.00;;;;;;5109153;27;20285;-86
2021/05/05 09:09:47;;;;;;;2.85;2.65;;;10.20;1.00;;;;;;5095732;28;20590;-84
2021/05/05 09:12:17;;;;;;;3.30;3.00;;;10.10;1.00;;;;;;5109210;27;20282;-83
2021/05/05 09:14:55;;;;;;;3.40;2.67;;;10.00;1.00;;;;;;5087061;27;20228;-83
2021/05/05 09:17:23;;;;;;;2.55;2.35;;;10.20;1.00;;;;;;5107549;27;20357;-82
2021/05/05 09:19:50;;;;;;;4.13;2.38;;;10.40;1.00;;;;;;5119947;27;20204;-82
2021/05/05 09:22:38;;;;;;;1.92;1.83;;;10.70;1.00;;;;;;5123382;27;20240;-84
2021/05/05 09:25:06;;;;;;;2.00;1.75;;;11.00;1.00;;;;;;5124888;27;20224;-84
2021/05/05 09:27:34;;;;;;;1.30;1.20;;;11.30;1.00;;;;;;5128209;27;20302;-84
2021/05/05 09:30:02;;;;;;;3.33;2.70;;;11.80;1.00;;;;;;5093325;28;20569;-84
2021/05/05 09:32:29;;;;;;;2.43;1.50;;;12.60;1.00;;;;;;5092416;27;21309;-84
2021/05/05 09:35:00;;;;;;;1.67;1.53;;;13.60;1.00;;;;;;5113161;28;20497;-86
2021/05/05 09:37:29;;;;;;;2.80;1.47;;;14.70;1.00;;;;;;5096484;28;20468;-87
2021/05/05 09:40:01;;;;;;;2.77;1.30;;;15.80;1.00;;;;;;5118288;27;20450;-84
2021/05/05 09:42:32;;;;;;;3.40;2.00;;;16.50;1.00;;;;;;5095228;28;20485;-86
2021/05/05 09:45:00;;;;;;;4.50;1.30;;;16.60;1.00;;;;;;5112935;28;20512;-86
2021/05/05 09:47:50;;;;;;;2.90;1.40;;;15.20;1.00;;;;;;5115825;27;20417;-86
2021/05/05 09:50:28;;;;;;;1.30;1.20;;;15.80;1.00;;;;;;5115145;27;20443;-87
2021/05/05 09:53:20;;;;;;;3.50;1.30;;;17.30;1.00;;;;;;5095036;28;20459;-88
2021/05/05 09:56:05;;;;;;;2.10;1.50;;;17.50;1.00;;;;;;5113847;27;20468;-86
2021/05/05 09:58:34;;;;;;;1.80;1.23;;;16.80;1.00;;;;;;5100042;28;20489;-87
2021/05/05 10:01:10;;;;;;;1.50;1.40;;;15.60;1.00;;;;;;5115021;27;20399;-88
2021/05/05 10:03:39;;;;;;;4.37;1.77;;;14.90;1.00;;;;;;5103582;28;20706;-88
2021/05/05 10:09:31;;;;;;;3.30;2.60;;;11.80;1.00;;;;;;5101560;28;20420;-88
2021/05/05 10:11:58;;;;;;;2.85;2.65;;;9.90;1.00;;;;;;5100890;27;20439;-89
2021/05/05 10:14:26;;;;;;;4.10;3.80;;;9.20;1.00;;;;;;5125531;27;20279;-87
2021/05/05 10:16:53;;;;;;;7.28;6.57;;;8.90;1.00;;;;;;5087912;28;20237;-87
2021/05/05 10:22:47;;;;;;;2.87;2.33;;;9.80;1.00;;;;;;5097265;27;20300;-87
2021/05/05 10:25:18;;;;;;;2.23;2.00;;;11.70;1.00;;;;;;5118827;28;20468;-86
2021/05/05 10:27:45;;;;;;;2.80;2.27;;;13.10;1.00;;;;;;5098577;28;20479;-86
2021/05/05 10:30:21;;;;;;;2.50;2.30;;;14.40;1.00;;;;;;5093557;28;20496;-88
2021/05/05 10:32:51;;;;;;;2.70;2.50;;;15.60;1.00;;;;;;5093189;28;20478;-87
2021/05/05 10:35:18;;;;;;;2.83;2.57;;;16.50;1.00;;;;;;5114388;27;22153;-88
2021/05/05 10:37:48;;;;;;;3.70;2.70;;;17.60;1.00;;;;;;5110391;27;20467;-87
2021/05/05 10:40:19;;;;;;;3.40;3.10;;;17.90;1.00;;;;;;5107077;27;20493;-86
2021/05/05 10:42:53;;;;;;;2.40;2.20;;;16.30;1.00;;;;;;5107849;27;20456;-84
2021/05/05 10:45:28;;;;;;;3.77;3.00;;;15.80;1.00;;;;;;5090341;28;20540;-88
2021/05/05 10:48:10;;;;;;;2.57;2.37;;;16.40;1.00;;;;;;5112157;27;20437;-87
2021/05/05 10:50:55;;;;;;;2.50;2.23;;;15.70;1.00;;;;;;5114342;27;20485;-89
2021/05/05 10:53:22;;;;;;;2.47;2.27;;;15.40;1.00;;;;;;5110458;27;20449;-88
2021/05/05 10:55:53;;;;;;;2.37;2.00;;;16.20;1.00;;;;;;5104921;27;20447;-87
2021/05/05 10:58:25;;;;;;;2.03;1.80;;;16.80;1.00;;;;;;5108243;27;20493;-85
2021/05/05 11:00:57;;;;;;;1.50;1.23;;;18.10;1.00;;;;;;5119693;27;21336;-88
2021/05/05 11:07:06;;;;;;;2.83;1.43;;;19.80;1.00;;;;;;5110855;27;20455;-88
2021/05/05 11:10:09;;;;;;;2.00;1.70;;;20.30;1.00;;;;;;5087953;28;20669;-86
2021/05/05 11:13:18;;;;;;;3.50;1.57;;;20.00;1.00;;;;;;5106235;27;20455;-84
2021/05/05 11:16:59;;;;;;;;;;;;;;;;;;;;;
2021/05/05 11:20:08;;;;;;;1.83;1.20;;;17.90;1.00;;;;;;5048360;28;20448;-89
2021/05/05 11:22:52;;;;;;;1.00;0.90;;;16.20;1.00;;;;;;5160431;22;20456;-85
2021/05/05 11:25:24;;;;;;;3.87;1.10;;;15.10;1.00;;;;;;5211009;22;20432;-88
2021/05/05 11:27:54;;;;;;;4.83;1.20;;;15.30;1.00;;;;;;5126393;27;20478;-87
2021/05/05 11:33:01;;;;;;;1.60;0.90;;;15.70;1.00;;;;;;5142662;27;20484;-91
2021/05/05 11:38:32;;;;;;;2.60;0.87;;;18.60;1.00;;;;;;5107636;27;20459;-89
2021/05/05 11:41:29;;;;;;;2.00;0.80;;;17.90;1.00;;;;;;5122180;27;20469;-90
2021/05/05 11:43:59;;;;;;;1.80;0.83;;;17.10;1.00;;;;;;5108072;27;20473;-87
2021/05/05 11:46:30;;;;;;;1.40;0.70;;;16.40;1.00;;;;;;5113602;27;20475;-89
2021/05/05 11:48:58;;;;;;;2.93;0.90;;;16.10;1.00;;;;;;5095806;27;20469;-90
2021/05/05 11:51:35;;;;;;;2.77;1.07;;;16.90;1.00;;;;;;5122026;27;20414;-91
2021/05/05 11:54:47;;;;;;;2.30;0.80;;;17.50;1.00;;;;;;5106576;28;20439;-89
2021/05/05 12:00:09;;;;;;;5.63;1.20;;;17.90;1.00;;;;;;5069949;28;20408;-86
2021/05/05 12:02:50;;;;;;;4.73;1.53;;;19.10;1.00;;;;;;5051211;28;20550;-86
2021/05/05 12:05:29;;;;;;;1.40;0.83;;;20.30;1.00;;;;;;5061316;28;20431;-83
2021/05/05 12:08:15;;;;;;;1.50;0.70;;;19.70;1.00;;;;;;5055724;28;20424;-84
2021/05/05 12:10:46;;;;;;;3.23;0.80;;;18.30;1.00;;;;;;5057758;28;20702;-83
2021/05/05 12:13:23;;;;;;;4.63;1.17;;;17.60;1.00;;;;;;5036464;28;20458;-85
2021/05/05 12:16:16;;;;;;;1.43;0.80;;;16.40;1.00;;;;;;5041331;28;20402;-84
2021/05/05 12:18:45;;;;;;;1.70;0.67;;;16.70;1.00;;;;;;5045746;28;20462;-87
2021/05/05 12:21:26;;;;;;;3.50;0.87;;;18.50;1.00;;;;;;5021332;28;20437;-86
2021/05/05 12:26:55;;;;;;;3.60;1.20;;;20.30;1.00;;;;;;5024342;28;20440;-86
2021/05/05 12:30:06;;;;;;;2.23;1.33;;;18.60;1.00;;;;;;5034493;28;21317;-85
2021/05/05 12:32:57;;;;;;;3.07;1.27;;;19.00;1.00;;;;;;5036014;28;20446;-86
2021/05/05 12:35:39;;;;;;;4.50;1.20;;;19.60;1.00;;;;;;5042678;28;20471;-86
2021/05/05 12:38:28;;;;;;;2.97;1.70;;;18.40;1.00;;;;;;5026011;28;20400;-86
2021/05/05 12:41:25;;;;;;;1.80;1.33;;;17.80;1.00;;;;;;5040526;28;20456;-86
2021/05/05 12:43:54;;;;;;;2.70;1.00;;;18.30;1.00;;;;;;5022275;28;20444;-86
2021/05/05 12:46:34;;;;;;;5.50;1.40;;;19.00;1.00;;;;;;5035387;28;20464;-85
2021/05/05 12:49:24;;;;;;;2.37;1.30;;;18.10;1.00;;;;;;5018834;28;20493;-85
2021/05/05 12:51:51;;;;;;;5.77;3.10;;;16.90;1.00;;;;;;5033596;28;20480;-87
2021/05/05 12:54:30;;;;;;;2.13;2.00;;;16.10;1.00;;;;;;5020929;28;20454;-84
2021/05/05 12:57:01;;;;;;;2.60;1.47;;;16.60;1.00;;;;;;5040888;28;21060;-86
2021/05/05 12:59:33;;;;;;;5.60;1.70;;;17.60;1.00;;;;;;5025121;28;20472;-84
2021/05/05 13:02:07;;;;;;;2.97;1.57;;;18.00;1.00;;;;;;5024954;28;20430;-87
2021/05/05 13:04:54;;;;;;;3.70;1.30;;;17.40;1.00;;;;;;5034095;28;21288;-85
2021/05/05 13:08:06;;;;;;;2.97;1.33;;;16.60;1.00;;;;;;4979008;28;20472;-87
2021/05/05 13:10:47;;;;;;;3.20;1.87;;;15.60;1.00;;;;;;5037043;28;20556;-85
2021/05/05 13:13:24;;;;;;;4.83;2.33;;;15.00;1.00;;;;;;5019354;28;20453;-86
2021/05/05 13:16:07;;;;;;;3.00;2.00;;;14.80;1.00;;;;;;5026742;28;20457;-88
2021/05/05 13:18:58;;;;;;;2.53;1.70;;;15.00;1.00;;;;;;5041096;28;20552;-84
2021/05/05 13:30:15;;;;;;;1.83;1.40;;;16.30;1.00;;;;;;5028440;28;20477;-86
2021/05/05 13:32:51;;;;;;;3.00;1.37;;;17.60;1.00;;;;;;5029789;28;20600;-85
2021/05/05 13:35:38;;;;;;;1.43;1.30;;;19.20;1.00;;;;;;5047932;28;20416;-84
2021/05/05 13:41:03;;;;;;;2.30;1.00;;;19.80;1.00;;;;;;5153088;27;1120481;-85
2021/05/05 13:43:37;;;;;;;0.83;0.70;;;21.10;1.00;;;;;;5153966;27;20218;-85
2021/05/05 13:46:09;;;;;;;1.20;1.10;;;21.60;1.00;;;;;;5151817;27;20461;-84
2021/05/05 13:48:42;;;;;;;1.73;1.20;;;22.00;1.00;;;;;;5147425;27;20444;-84
2021/05/05 13:51:12;;;;;;;1.43;1.13;;;21.60;1.00;;;;;;5144404;27;20444;-84
2021/05/05 13:53:45;;;;;;;1.70;1.33;;;22.10;1.00;;;;;;5140598;27;20406;-84
2021/05/05 13:56:20;;;;;;;2.40;1.60;;;22.10;1.00;;;;;;5150412;27;20409;-84
2021/05/05 13:59:06;;;;;;;5.70;1.63;;;21.80;1.00;;;;;;5147526;27;20413;-84
2021/05/05 14:01:33;;;;;;;2.67;1.90;;;21.70;1.00;;;;;;5159894;27;20468;-86